Belgrade, MT (59714)

2:54 PM MDT on July 30, 2016 (GMT -0600)
Belgrade Gardens | | Change Station

Elev 4386 ft 45.80 °N, 111.21 °W | Updated 17 seconds ago

Clear
Clear
97.3 °F
Feels Like 94 °F
N
4.2
Wind Variable Wind from ESE
Gusts 7.3 mph

Today
High -- | Low -- °F
--% Chance of Precip.
Yesterday
High -- | Low -- °F
Precip. -- in
Pressure 29.73 in
Visibility 10.0 miles
Clouds Clear
Heat Index 94 °F
Dew Point 48 °F
Humidity 19%
Rainfall 0.00 in
Snow Depth Not available.
6:05 AM 8:55 PM
Waning Crescent, 11% visible
METAR KBZN 301956Z VRB05KT 10SM CLR 31/07 A2988 RMK AO2 SLP067 T03110072
Pressure 29.73 in
Visibility 10.0 miles
Clouds Clear
Heat Index 94 °F
Dew Point 48 °F
Humidity 19%
Rainfall 0.00 in
Snow Depth Not available.
6:05 AM 8:55 PM
Waning Crescent, 11% visible
METAR KBZN 301956Z VRB05KT 10SM CLR 31/07 A2988 RMK AO2 SLP067 T03110072

10-Day Weather Forecast

Almanac

Astronomy

Jul. 30, 2016 Rise Set
Actual Time
Civil Twilight
Nautical Twilight
Astronomical Twilight
Moon
Length of Visible Light
Length of Day
Tomorrow will be .
, % of the Moon is Illuminated

Today's Extremes

State Highs State Lows

Community

WunderPhotos

Upload Photos

1,928,632 photos uploaded!

WunderBlog® & News

Nearby

Air Quality

  Air Quality AQ Index Pollutant
Not available.

Snow Depth

Station Depth Elevation

Earthquake Activity

City Distance Mag. Time & Date
Minimum magnitude displayed is 2.5.

Coastal Water Temperatures

Place Temperature

Stations

Nearby Weather Stations

Station Location Temp. Windchill Dew Point Humidity Wind Precip. Elev Updated Type
                   

Watches & Warnings

There are currently no watches in effect.